Time;durP1;ratioP1;P1;durP2;ratioP2;P2;SDS_P1;SDS_P2;PMS_P1;PMS_P2;Temp;Humidity;BMP_temperature;BMP_pressure;BME280_temperature;BME280_humidity;BME280_pressure;Samples;Min_cycle;Max_cycle;Signal;HPM_P1;HPM_P2
2023/05/25 00:10:46;;;;;;;7.07;2.15;;;9.50;99.90;;;9.04;90.13;97625.72;5141929;22;20048;-78
2023/05/25 00:13:12;;;;;;;9.57;1.98;;;9.50;99.90;;;8.99;92.60;97627.63;5039936;28;20036;-78
2023/05/25 00:15:38;;;;;;;8.02;2.20;;;9.50;99.90;;;8.93;94.29;97628.63;5010160;28;20036;-78
2023/05/25 00:18:04;;;;;;;8.07;2.35;;;9.40;99.90;;;8.87;93.02;97627.97;5011094;28;20789;-77
2023/05/25 00:20:31;;;;;;;11.55;2.90;;;9.30;99.90;;;8.87;92.20;97631.44;5014514;28;20060;-78
2023/05/25 00:22:58;;;;;;;13.13;2.47;;;9.30;99.90;;;8.87;91.72;97631.44;5011663;28;20105;-77
2023/05/25 00:25:23;;;;;;;7.13;2.47;;;9.30;99.90;;;8.83;91.26;97619.28;5018570;28;20120;-78
2023/05/25 00:27:49;;;;;;;6.75;2.40;;;9.30;99.90;;;8.83;93.29;97632.44;5014666;28;20025;-78
2023/05/25 00:30:15;;;;;;;7.53;2.22;;;9.30;99.90;;;8.78;93.79;97615.91;5007776;28;20486;-78
2023/05/25 00:32:41;;;;;;;7.18;2.45;;;9.30;99.90;;;8.82;94.21;97630.69;4998878;28;20675;-77
2023/05/25 00:35:07;;;;;;;6.03;2.30;;;9.30;99.90;;;8.85;94.70;97630.63;4997975;28;20059;-78
2023/05/25 00:37:33;;;;;;;6.50;2.30;;;9.30;99.90;;;8.84;94.35;97614.88;5013455;28;20087;-78
2023/05/25 00:39:58;;;;;;;6.03;2.67;;;9.30;99.90;;;8.95;95.07;97625.97;5015925;28;20156;-78
2023/05/25 00:42:24;;;;;;;7.00;2.47;;;9.40;99.90;;;9.01;94.50;97624.94;5012143;28;20111;-78
2023/05/25 00:44:50;;;;;;;5.40;2.17;;;9.40;99.90;;;9.05;94.40;97623.97;5006671;28;20087;-78
2023/05/25 00:47:16;;;;;;;10.95;2.10;;;9.50;99.90;;;9.08;93.38;97615.97;4989962;28;20123;-78
2023/05/25 00:49:42;;;;;;;6.88;2.42;;;9.60;99.90;;;9.12;93.05;97618.50;5016737;28;20123;-78
2023/05/25 00:52:11;;;;;;;8.77;2.55;;;9.60;99.90;;;9.21;93.40;97621.78;5029172;28;20074;-78
2023/05/25 00:54:38;;;;;;;6.63;2.30;;;9.70;99.90;;;9.22;92.83;97612.97;5014026;28;20432;-78
2023/05/25 00:57:06;;;;;;;7.85;2.30;;;9.70;99.90;;;9.12;91.64;97594.81;5014827;28;20702;-78
2023/05/25 00:59:50;;;;;;;7.30;2.42;;;9.70;99.90;;;9.16;92.99;97600.84;5014231;28;20041;-78
2023/05/25 01:02:18;;;;;;;4.25;2.53;;;9.70;99.90;;;9.15;95.96;97610.53;4995799;28;20021;-78
2023/05/25 01:04:51;;;;;;;9.20;2.47;;;9.60;99.90;;;9.02;95.99;97603.00;5015791;28;20040;-78
2023/05/25 01:07:22;;;;;;;3.83;2.00;;;9.50;99.90;;;8.95;97.30;97605.81;5014490;28;20033;-78
2023/05/25 01:10:05;;;;;;;4.70;2.30;;;9.40;99.90;;;8.79;99.20;97600.09;5014313;28;20041;-78
2023/05/25 01:12:37;;;;;;;8.38;2.30;;;9.30;99.90;;;8.71;100.00;97614.34;5014402;28;20385;-78
2023/05/25 01:15:04;;;;;;;6.17;2.47;;;9.20;99.90;;;8.52;100.00;97604.28;5010627;28;20029;-78
2023/05/25 01:17:31;;;;;;;10.65;2.20;;;9.00;99.90;;;8.47;100.00;97611.44;5016141;28;20284;-78
2023/05/25 01:19:57;;;;;;;7.15;2.15;;;8.90;99.90;;;8.32;100.00;97604.75;5013532;28;20096;-78
2023/05/25 01:22:39;;;;;;;6.10;2.28;;;8.80;99.90;;;8.29;100.00;97609.22;4993555;28;20043;-78
2023/05/25 01:25:24;;;;;;;6.25;2.20;;;8.70;99.90;;;8.20;100.00;97605.94;4999907;28;20319;-78
2023/05/25 01:28:15;;;;;;;7.85;2.70;;;8.70;99.90;;;8.16;100.00;97606.03;5005848;28;20057;-78
2023/05/25 01:30:45;;;;;;;5.60;2.55;;;8.60;99.90;;;8.17;100.00;97599.91;5009377;28;20025;-78
2023/05/25 01:33:12;;;;;;;9.35;2.42;;;8.60;99.90;;;8.07;100.00;97583.47;5015085;28;20134;-78
2023/05/25 01:35:40;;;;;;;7.60;2.83;;;8.60;99.90;;;8.15;100.00;97601.69;5014666;28;20404;-78
2023/05/25 01:38:07;;;;;;;6.72;2.25;;;8.60;99.90;;;8.12;100.00;97599.13;5018457;28;20037;-78
2023/05/25 01:40:32;;;;;;;5.90;2.47;;;8.60;99.90;;;8.05;100.00;97598.41;5015744;28;20031;-78
2023/05/25 01:48:40;;;;;;;4.50;2.22;;;8.50;99.90;;;7.88;100.00;97613.69;5014648;28;21170;-36
2023/05/25 01:51:21;;;;;;;6.88;2.55;;;8.40;99.90;;;7.82;100.00;97614.69;4992397;28;20049;-36
2023/05/25 01:53:57;;;;;;;5.93;2.58;;;8.30;99.90;;;7.68;100.00;97594.03;5010051;28;20455;-36
2023/05/25 01:56:26;;;;;;;10.38;2.80;;;8.30;99.90;;;7.74;100.00;97611.38;5009363;28;20029;-36
2023/05/25 01:58:54;;;;;;;5.22;2.67;;;8.20;99.90;;;7.69;100.00;97608.84;5011773;28;20029;-36
2023/05/25 02:01:21;;;;;;;6.55;2.78;;;8.10;99.90;;;7.64;100.00;97610.72;5012781;28;20399;-36
2023/05/25 02:03:48;;;;;;;8.15;2.85;;;8.10;99.90;;;7.60;100.00;97615.16;5014667;28;20053;-36
2023/05/25 02:06:15;;;;;;;8.07;2.95;;;8.10;99.90;;;7.56;100.00;97608.25;5014784;28;20116;-36
2023/05/25 02:08:42;;;;;;;5.50;2.60;;;8.00;99.90;;;7.55;100.00;97605.66;5014341;28;20064;-38
2023/05/25 02:11:08;;;;;;;7.88;3.03;;;8.00;99.90;;;7.52;100.00;97601.38;5014385;28;20025;-36
2023/05/25 02:13:34;;;;;;;7.70;3.15;;;8.00;99.90;;;7.50;100.00;97604.91;5013413;28;20037;-36
2023/05/25 02:16:00;;;;;;;7.00;3.03;;;7.90;99.90;;;7.47;100.00;97597.13;5011667;28;20034;-36
2023/05/25 02:18:26;;;;;;;7.05;2.38;;;7.90;99.90;;;7.46;100.00;97593.59;5012971;28;20029;-36
2023/05/25 02:20:52;;;;;;;11.02;3.00;;;7.90;99.90;;;7.44;100.00;97592.78;5011799;28;20100;-36
2023/05/25 02:23:18;;;;;;;8.02;3.28;;;7.90;99.90;;;7.39;100.00;97592.00;5014069;28;20040;-36
2023/05/25 02:25:44;;;;;;;10.63;2.95;;;7.90;99.90;;;7.37;100.00;97585.94;5011166;28;20300;-36
2023/05/25 02:28:09;;;;;;;8.05;3.00;;;7.80;99.90;;;7.33;100.00;97579.88;5013265;28;20640;-37
2023/05/25 02:30:35;;;;;;;6.07;3.05;;;7.80;99.90;;;7.34;100.00;97584.25;5008308;28;20029;-37
2023/05/25 02:33:01;;;;;;;7.97;2.85;;;7.80;99.90;;;7.32;100.00;97579.91;5016494;28;20425;-37
2023/05/25 02:35:27;;;;;;;7.88;3.05;;;7.80;99.90;;;7.30;100.00;97579.09;5012445;28;20053;-37
2023/05/25 02:37:52;;;;;;;11.45;3.20;;;7.80;99.90;;;7.23;100.00;97579.22;5015100;28;20506;-36
2023/05/25 02:40:18;;;;;;;9.60;3.50;;;7.70;99.90;;;7.17;100.00;97575.84;5015611;28;20037;-37
2023/05/25 02:42:44;;;;;;;6.28;2.83;;;7.70;99.90;;;7.17;100.00;97573.22;4993631;28;20690;-37
2023/05/25 02:45:10;;;;;;;8.18;2.90;;;7.70;99.90;;;7.12;100.00;97583.81;5010765;28;20371;-36
2023/05/25 02:47:36;;;;;;;8.32;2.60;;;7.60;99.90;;;7.09;100.00;97578.66;5013200;28;20034;-36
2023/05/25 02:50:03;;;;;;;11.68;3.45;;;7.60;99.90;;;7.08;100.00;97584.78;5014499;28;20065;-36
2023/05/25 02:52:30;;;;;;;8.70;3.20;;;7.60;99.90;;;6.93;100.00;97559.72;5014108;28;20544;-36
2023/05/25 02:54:56;;;;;;;6.03;2.35;;;7.50;99.90;;;6.97;100.00;97584.13;5015135;28;20611;-36
2023/05/25 02:57:22;;;;;;;8.10;3.33;;;7.50;99.90;;;6.94;100.00;97592.03;5014983;28;20029;-36
2023/05/25 02:59:49;;;;;;;6.55;2.85;;;7.40;99.90;;;6.93;100.00;97596.44;5012146;28;20213;-36
2023/05/25 03:02:17;;;;;;;8.50;3.08;;;7.40;99.90;;;6.89;100.00;97597.38;5013407;28;20528;-36
2023/05/25 03:04:44;;;;;;;10.18;2.95;;;7.40;99.90;;;6.87;100.00;97592.19;5014727;28;20030;-37
2023/05/25 03:07:11;;;;;;;6.50;3.22;;;7.40;99.90;;;6.86;100.00;97600.91;5010550;28;20030;-37
2023/05/25 03:09:37;;;;;;;9.48;2.88;;;7.40;99.90;;;6.83;100.00;97600.97;5013258;28;20086;-37
2023/05/25 03:12:03;;;;;;;8.00;3.30;;;7.40;99.90;;;6.81;100.00;97596.66;5014021;28;20712;-37
2023/05/25 03:14:28;;;;;;;7.60;3.17;;;7.30;99.90;;;6.82;100.00;97608.84;5015615;28;20060;-37
2023/05/25 03:16:54;;;;;;;9.77;3.38;;;7.30;99.90;;;6.82;100.00;97606.25;5008421;28;20034;-36
2023/05/25 03:19:20;;;;;;;12.25;3.05;;;7.30;99.90;;;6.76;100.00;97601.13;5012721;28;20036;-36
2023/05/25 03:21:46;;;;;;;8.30;2.97;;;7.30;99.90;;;6.75;100.00;97602.00;5013658;28;20140;-36
2023/05/25 03:24:12;;;;;;;9.48;3.28;;;7.30;99.90;;;6.75;100.00;97615.09;5012953;28;20037;-36
2023/05/25 03:26:38;;;;;;;7.95;3.15;;;7.30;99.90;;;6.68;100.00;97612.63;5014147;28;20132;-36
2023/05/25 03:29:05;;;;;;;7.78;3.03;;;7.20;99.90;;;6.67;100.00;97617.88;5010796;28;20527;-36
2023/05/25 03:31:31;;;;;;;7.30;3.45;;;7.20;99.90;;;6.64;100.00;97617.91;5014454;28;20036;-36
2023/05/25 03:33:57;;;;;;;9.77;3.53;;;7.20;99.90;;;6.59;100.00;97614.53;5012004;28;20033;-37
2023/05/25 03:36:26;;;;;;;6.60;3.38;;;7.10;99.90;;;6.59;100.00;97607.53;5013973;28;20053;-36
2023/05/25 03:38:53;;;;;;;5.78;2.95;;;7.10;99.90;;;6.60;100.00;97606.63;5013357;28;20402;-36
2023/05/25 03:41:19;;;;;;;8.13;3.22;;;7.10;99.90;;;6.59;100.00;97610.16;5009963;28;20034;-36
2023/05/25 03:43:45;;;;;;;9.65;3.28;;;7.10;99.90;;;6.55;100.00;97595.38;5010212;28;20203;-37
2023/05/25 03:46:10;;;;;;;10.38;3.83;;;7.10;99.90;;;6.60;100.00;97606.63;5005622;28;20955;-36
2023/05/25 03:48:36;;;;;;;6.75;3.20;;;7.10;99.90;;;6.61;100.00;97608.38;5010360;28;20095;-36
2023/05/25 03:51:02;;;;;;;9.73;3.50;;;7.20;99.90;;;6.58;100.00;97602.31;5007095;28;20639;-36
2023/05/25 03:53:28;;;;;;;11.52;4.03;;;7.20;99.90;;;6.58;100.00;97603.19;5010108;28;20555;-36
2023/05/25 03:55:54;;;;;;;12.18;4.15;;;7.20;99.90;;;6.59;100.00;97618.03;5015259;28;20209;-36
2023/05/25 03:58:20;;;;;;;11.23;3.53;;;7.20;99.90;;;6.65;100.00;97615.28;5009102;28;20148;-36
2023/05/25 04:00:48;;;;;;;8.57;3.40;;;7.20;99.90;;;6.67;100.00;97623.13;5004665;28;20036;-39
2023/05/25 04:03:14;;;;;;;10.30;3.70;;;7.20;99.90;;;6.65;100.00;97610.03;5006919;28;20137;-36
2023/05/25 04:05:40;;;;;;;9.43;3.38;;;7.30;99.90;;;6.71;100.00;97618.69;5010205;28;20029;-36
2023/05/25 04:08:07;;;;;;;10.65;3.78;;;7.30;99.90;;;6.79;100.00;97625.53;5011730;28;20037;-36
2023/05/25 04:10:33;;;;;;;7.10;3.95;;;7.40;99.90;;;6.80;100.00;97629.00;5009581;28;21924;-36
2023/05/25 04:12:58;;;;;;;10.00;3.83;;;7.40;99.90;;;6.86;100.00;97642.00;5008272;28;20649;-36
2023/05/25 04:15:24;;;;;;;9.82;3.70;;;7.40;99.90;;;6.89;100.00;97641.94;5009723;28;20632;-36
2023/05/25 04:17:50;;;;;;;10.43;4.18;;;7.40;99.90;;;6.91;100.00;97644.53;5004052;28;20140;-36
2023/05/25 04:20:16;;;;;;;9.32;4.30;;;7.50;99.90;;;7.00;100.00;97636.50;5009426;28;20100;-36
2023/05/25 04:22:43;;;;;;;9.32;3.50;;;7.50;99.90;;;7.04;100.00;97631.16;5013501;28;20025;-36
2023/05/25 04:25:09;;;;;;;7.07;3.35;;;7.60;99.90;;;7.12;100.00;97636.25;5017606;28;20059;-36
2023/05/25 04:27:35;;;;;;;10.02;3.40;;;7.70;99.90;;;7.13;100.00;97630.13;5013426;28;20056;-36
2023/05/25 04:30:02;;;;;;;10.50;3.58;;;7.70;99.90;;;7.14;100.00;97628.38;5011080;28;20042;-36
2023/05/25 04:32:31;;;;;;;13.25;4.05;;;7.70;99.90;;;7.20;100.00;97634.38;5016807;28;20044;-36
2023/05/25 04:34:57;;;;;;;8.20;3.88;;;7.80;99.90;;;7.24;100.00;97636.03;5009876;28;20025;-36
2023/05/25 04:37:27;;;;;;;11.75;4.22;;;7.80;99.90;;;7.29;100.00;97635.94;5016255;28;20029;-36
2023/05/25 04:39:53;;;;;;;11.38;3.70;;;7.80;99.90;;;7.35;100.00;97635.81;5015110;28;20025;-36
2023/05/25 04:42:22;;;;;;;7.43;3.35;;;7.90;99.90;;;7.41;100.00;97633.06;5012247;28;20033;-36
2023/05/25 04:44:50;;;;;;;10.60;3.30;;;7.90;99.90;;;7.49;100.00;97637.31;5011132;28;20084;-37
2023/05/25 04:47:15;;;;;;;9.95;3.60;;;8.00;99.90;;;7.53;100.00;97638.97;5015204;28;20049;-36
2023/05/25 04:49:41;;;;;;;6.90;3.47;;;8.00;99.90;;;7.53;100.00;97638.97;5004655;28;20041;-36
2023/05/25 04:52:07;;;;;;;9.73;3.65;;;8.10;99.90;;;7.56;100.00;97645.00;5009747;28;20045;-36
2023/05/25 04:54:33;;;;;;;13.70;3.80;;;8.10;99.90;;;7.60;100.00;97645.81;5007061;28;20425;-36
2023/05/25 04:56:59;;;;;;;13.20;4.70;;;8.10;99.90;;;7.67;100.00;97644.78;5015692;28;20029;-36
2023/05/25 04:59:25;;;;;;;7.72;3.55;;;8.20;99.90;;;7.55;100.00;97616.16;4996043;28;20457;-36
2023/05/25 05:01:50;;;;;;;10.00;4.10;;;8.20;99.90;;;7.75;100.00;97647.22;4998288;28;20021;-36
2023/05/25 05:04:16;;;;;;;9.27;3.72;;;8.30;99.90;;;7.82;100.00;97654.97;5011597;28;21619;-36
2023/05/25 05:06:42;;;;;;;10.70;3.67;;;8.40;99.90;;;7.90;100.00;97654.78;5012972;28;20044;-36
2023/05/25 05:09:08;;;;;;;13.15;4.70;;;8.40;99.90;;;7.94;100.00;97655.59;5014787;28;20034;-36
2023/05/25 05:11:33;;;;;;;8.05;4.13;;;8.50;99.90;;;8.02;100.00;97661.50;5008103;28;20075;-36
2023/05/25 05:13:59;;;;;;;11.82;5.78;;;8.50;99.90;;;8.12;100.00;97659.56;5011017;28;20040;-36
2023/05/25 05:16:25;;;;;;;11.45;3.72;;;8.60;99.90;;;8.21;100.00;97652.31;5010375;28;20470;-36
2023/05/25 05:18:51;;;;;;;10.13;3.97;;;8.70;99.90;;;8.30;100.00;97650.38;5002533;28;20025;-37
2023/05/25 05:21:16;;;;;;;9.70;3.70;;;8.80;99.90;;;8.46;100.00;97669.31;5017797;28;20033;-37
2023/05/25 05:23:42;;;;;;;11.02;3.53;;;9.00;99.90;;;8.56;100.00;97671.69;5003367;28;20326;-37
2023/05/25 05:26:10;;;;;;;8.18;3.60;;;9.00;99.90;;;8.63;100.00;97661.00;5004605;28;20033;-37
2023/05/25 05:28:36;;;;;;;11.52;4.20;;;9.20;99.90;;;8.80;100.00;97682.47;4995249;28;20041;-37
2023/05/25 05:31:02;;;;;;;11.23;3.80;;;9.30;99.90;;;8.90;100.00;97686.63;4999563;28;20049;-36
2023/05/25 05:33:28;;;;;;;10.52;3.58;;;9.40;99.90;;;9.00;100.00;97683.75;5009418;28;20577;-37
2023/05/25 05:35:53;;;;;;;13.27;4.75;;;9.50;99.90;;;9.11;100.00;97689.56;5013734;28;21605;-36
2023/05/25 05:38:20;;;;;;;9.10;4.57;;;9.60;99.90;;;9.27;100.00;97682.13;5014859;28;20103;-37
2023/05/25 05:40:45;;;;;;;11.10;3.83;;;9.70;99.90;;;9.46;100.00;97687.78;5011963;28;20113;-37
2023/05/25 05:43:12;;;;;;;10.23;3.90;;;9.80;99.90;;;9.65;100.00;97683.69;5016013;28;21868;-37
2023/05/25 05:45:38;;;;;;;11.13;4.03;;;10.00;99.90;;;9.81;100.00;97694.63;5014971;28;20033;-37
2023/05/25 05:48:08;;;;;;;9.27;3.47;;;10.10;99.90;;;9.93;100.00;97690.78;5014548;28;20045;-37
2023/05/25 05:50:35;;;;;;;11.25;3.70;;;10.30;99.90;;;10.07;100.00;97693.88;5014615;28;20079;-36
2023/05/25 05:53:01;;;;;;;15.00;3.90;;;10.40;99.90;;;10.17;100.00;97694.44;5017919;28;20036;-37
2023/05/25 05:55:27;;;;;;;9.65;4.05;;;10.60;99.90;;;10.31;100.00;97697.56;5021963;28;20033;-37
2023/05/25 05:57:52;;;;;;;7.90;3.72;;;10.70;99.90;;;10.43;100.00;97703.38;5010038;28;20485;-38
2023/05/25 06:00:18;;;;;;;10.00;3.92;;;10.80;99.90;;;10.58;100.00;97709.94;5011666;28;20041;-37
2023/05/25 06:02:44;;;;;;;11.65;4.03;;;10.90;99.90;;;10.69;100.00;97711.31;5011147;28;20090;-36
2023/05/25 06:05:10;;;;;;;10.80;3.75;;;11.10;99.90;;;10.82;100.00;97710.91;5014777;28;21057;-36
2023/05/25 06:07:37;;;;;;;13.52;4.93;;;11.10;99.90;;;10.93;100.00;97718.47;5015861;28;20021;-37
2023/05/25 06:10:04;;;;;;;9.70;4.40;;;11.30;99.90;;;11.14;97.71;97724.81;5015516;28;20048;-37
2023/05/25 06:12:29;;;;;;;12.13;3.95;;;11.50;99.90;;;11.42;97.48;97719.44;5013031;28;20531;-37
2023/05/25 06:14:55;;;;;;;6.85;3.80;;;11.70;99.90;;;11.75;93.06;97727.06;5007629;28;20038;-36
2023/05/25 06:17:22;;;;;;;13.60;4.15;;;12.10;99.90;;;11.98;91.71;97724.47;5021112;28;20045;-36
2023/05/25 06:19:51;;;;;;;8.23;3.28;;;12.30;99.90;;;12.08;91.76;97711.78;5018200;28;20039;-37
2023/05/25 06:22:17;;;;;;;9.10;3.60;;;12.50;99.90;;;12.33;90.47;97724.91;5017656;28;20029;-36
2023/05/25 06:24:42;;;;;;;14.88;4.00;;;12.60;99.90;;;12.40;86.77;97725.53;5017237;28;20056;-36
2023/05/25 06:27:08;;;;;;;15.18;4.88;;;12.70;99.90;;;12.39;80.00;97723.81;5018034;28;20044;-37
2023/05/25 06:29:34;;;;;;;10.00;4.20;;;12.80;99.90;;;12.49;84.59;97732.22;5017987;28;20568;-37
2023/05/25 06:32:00;;;;;;;10.15;3.45;;;12.80;99.90;;;12.62;84.23;97722.91;5020417;28;20029;-37
2023/05/25 06:34:26;;;;;;;8.70;3.72;;;12.80;99.90;;;12.70;84.53;97719.94;5016771;28;20038;-37
2023/05/25 06:36:52;;;;;;;10.00;3.63;;;12.90;99.90;;;12.77;84.11;97721.41;5007952;28;20031;-37
2023/05/25 06:39:19;;;;;;;13.88;4.13;;;13.00;99.90;;;12.89;82.38;97720.91;5011922;28;20112;-37
2023/05/25 06:41:44;;;;;;;13.00;3.97;;;13.10;99.90;;;12.95;81.02;97731.25;5006760;28;20083;-37
2023/05/25 06:44:10;;;;;;;11.52;3.75;;;13.20;99.90;;;13.08;82.17;97733.38;5007396;28;20033;-37
2023/05/25 06:46:36;;;;;;;17.67;4.60;;;13.20;99.90;;;13.06;78.80;97735.25;5010107;28;20044;-37
2023/05/25 06:49:02;;;;;;;19.63;4.45;;;13.30;99.90;;;13.05;79.50;97730.88;5015041;28;20293;-37
2023/05/25 06:51:28;;;;;;;15.77;4.38;;;13.30;99.90;;;12.92;79.76;97726.09;5014612;28;20033;-37
2023/05/25 06:53:56;;;;;;;11.00;4.55;;;13.20;99.90;;;12.87;81.39;97721.91;5008937;28;20033;-37
2023/05/25 06:56:22;;;;;;;7.18;3.70;;;13.20;99.90;;;13.07;83.17;97735.19;5014086;28;20545;-37
2023/05/25 06:58:49;;;;;;;13.23;4.32;;;13.40;99.90;;;13.32;80.61;97748.28;5012585;28;20031;-37
2023/05/25 07:01:15;;;;;;;20.38;5.47;;;13.60;99.90;;;13.40;79.00;97740.00;5013475;28;20025;-37
2023/05/25 07:03:41;;;;;;;12.48;4.05;;;13.90;99.90;;;13.48;77.65;97735.25;5014310;28;20029;-37
2023/05/25 07:06:07;;;;;;;10.98;4.40;;;14.00;99.90;;;13.78;77.50;97750.72;5013492;28;20048;-37
2023/05/25 07:08:33;;;;;;;8.13;4.35;;;14.20;99.90;;;13.92;76.78;97753.59;5011243;28;20025;-38
2023/05/25 07:10:58;;;;;;;17.08;4.63;;;14.30;99.90;;;14.00;77.88;97752.41;5009430;28;21461;-39
2023/05/25 07:13:24;;;;;;;10.50;3.95;;;14.40;99.90;;;14.08;76.74;97750.28;5015723;28;20444;-38
2023/05/25 07:15:51;;;;;;;11.20;4.60;;;14.50;99.90;;;13.97;77.42;97734.00;4998756;28;20033;-35
2023/05/25 07:18:17;;;;;;;13.57;4.38;;;14.60;99.90;;;14.21;76.07;97747.91;5010959;28;20034;-35
2023/05/25 07:20:43;;;;;;;12.65;4.80;;;14.70;99.90;;;14.35;77.48;97755.25;5007181;28;20038;-39
2023/05/25 07:23:10;;;;;;;18.08;5.13;;;14.80;99.90;;;14.46;74.52;97758.25;5007894;28;20139;-36
2023/05/25 07:25:40;;;;;;;8.40;4.18;;;14.90;99.90;;;14.51;73.83;97758.91;5014544;28;20053;-36
2023/05/25 07:28:06;;;;;;;12.75;4.55;;;15.00;99.90;;;14.47;74.50;97766.16;5012679;28;20061;-36
2023/05/25 07:30:32;;;;;;;11.63;4.35;;;15.00;99.90;;;14.60;73.45;97769.09;5008952;28;20138;-36
2023/05/25 07:32:58;;;;;;;15.45;5.00;;;15.10;99.90;;;14.51;73.70;97769.50;5004839;28;20037;-36
2023/05/25 07:35:25;;;;;;;10.07;4.10;;;15.00;99.90;;;14.62;73.18;97769.91;5008636;28;20288;-37
2023/05/25 07:38:03;;;;;;;11.50;4.65;;;15.10;99.90;;;14.67;75.93;97762.56;5006234;28;20045;-37
2023/05/25 07:40:29;;;;;;;9.25;4.18;;;15.10;99.90;;;14.84;73.04;97764.44;5004918;28;20029;-38
2023/05/25 07:42:55;;;;;;;13.48;4.43;;;15.20;99.90;;;14.97;71.44;97766.50;5005608;28;20456;-37
2023/05/25 07:45:21;;;;;;;14.70;5.07;;;15.40;99.90;;;14.91;69.54;97774.75;5008003;28;20041;-37
2023/05/25 07:47:47;;;;;;;13.25;4.80;;;15.40;99.90;;;15.02;71.28;97781.28;5014106;28;20037;-37
2023/05/25 07:50:14;;;;;;;12.35;4.82;;;15.60;99.90;;;15.17;67.73;97770.84;5014175;28;20033;-37
2023/05/25 07:52:40;;;;;;;13.77;4.80;;;15.70;99.90;;;15.24;68.57;97766.94;5012396;28;20029;-37
2023/05/25 07:55:07;;;;;;;15.13;4.82;;;15.80;99.90;;;15.43;68.24;97764.19;5008742;28;20378;-35
2023/05/25 07:57:33;;;;;;;11.13;3.97;;;16.00;99.90;;;15.65;68.29;97771.94;5005248;28;20033;-37
2023/05/25 07:59:59;;;;;;;14.15;5.03;;;16.20;99.90;;;15.73;64.14;97767.06;5006247;28;20542;-37
2023/05/25 08:02:25;;;;;;;9.75;4.30;;;16.30;99.90;;;15.76;64.76;97758.97;5047557;22;20055;-37
2023/05/25 08:04:50;;;;;;;10.90;4.15;;;16.30;99.90;;;15.95;66.76;97752.69;5038441;28;20040;-37
2023/05/25 08:07:18;;;;;;;15.98;4.93;;;16.40;99.90;;;16.08;66.37;97761.75;5043112;28;20481;-37
2023/05/25 08:09:44;;;;;;;10.10;4.50;;;16.70;99.90;;;16.29;66.03;97762.38;5029974;28;20386;-37
2023/05/25 08:12:10;;;;;;;9.55;4.90;;;16.80;99.90;;;16.26;65.11;97759.91;5026749;28;20033;-37
2023/05/25 08:14:36;;;;;;;10.88;5.05;;;16.80;99.90;;;16.18;64.13;97765.59;5018174;28;20120;-37
2023/05/25 08:17:03;;;;;;;9.10;4.95;;;16.80;99.90;;;16.26;62.82;97757.25;5027400;28;20040;-39
2023/05/25 08:19:31;;;;;;;12.75;5.40;;;16.90;99.90;;;16.32;66.12;97753.38;5022517;28;20290;-38
2023/05/25 08:21:57;;;;;;;14.70;5.65;;;16.80;99.90;;;16.32;64.81;97756.88;5023044;28;20040;-37
2023/05/25 08:24:23;;;;;;;13.20;5.18;;;16.70;99.90;;;16.38;64.47;97751.25;5028565;28;20473;-37
2023/05/25 08:26:48;;;;;;;12.18;4.63;;;16.70;99.90;;;16.46;67.26;97747.31;5033385;28;20025;-37
2023/05/25 08:29:14;;;;;;;10.20;4.55;;;16.80;99.90;;;16.56;70.09;97757.38;5031544;28;20079;-37
2023/05/25 08:31:42;;;;;;;14.48;4.93;;;16.90;99.90;;;16.60;65.41;97760.72;5025215;28;20025;-36
2023/05/25 08:34:08;;;;;;;13.38;4.90;;;16.90;99.90;;;16.57;68.11;97758.22;5028934;28;20037;-38
2023/05/25 08:36:35;;;;;;;12.02;5.10;;;16.90;99.90;;;16.64;67.79;97778.22;5032666;28;20039;-39
2023/05/25 08:39:01;;;;;;;12.63;5.00;;;17.00;99.90;;;16.58;64.06;97779.44;5033341;28;20052;-40
2023/05/25 08:41:28;;;;;;;12.73;5.47;;;17.10;99.90;;;16.73;65.91;97774.19;5027719;28;20117;-39
2023/05/25 08:43:54;;;;;;;16.65;5.82;;;17.10;99.90;;;16.67;65.16;97769.19;5021997;28;20041;-39
2023/05/25 08:46:30;;;;;;;8.10;4.55;;;17.10;99.90;;;16.91;63.47;97769.66;5021715;28;20036;-38
2023/05/25 08:49:04;;;;;;;15.23;5.15;;;17.30;99.90;;;17.08;65.10;97771.34;5030726;28;20761;-39
2023/05/25 08:51:38;;;;;;;10.48;4.63;;;17.50;99.90;;;17.42;59.85;97783.59;5029707;28;20030;-38
2023/05/25 08:54:11;;;;;;;12.15;5.18;;;17.80;99.90;;;17.80;62.01;97776.91;5030105;28;20485;-39
2023/05/25 08:56:48;;;;;;;16.95;6.03;;;18.20;99.90;;;17.92;58.89;97779.75;5030890;28;20108;-39
2023/05/25 08:59:36;;;;;;;12.65;5.22;;;18.40;99.90;;;18.06;58.32;97773.56;5035950;28;20030;-38
2023/05/25 09:02:21;;;;;;;10.15;5.13;;;18.60;99.90;;;18.23;61.50;97774.34;5032209;28;20052;-39
2023/05/25 09:04:46;;;;;;;12.00;4.63;;;18.60;99.90;;;18.29;61.72;97765.97;5031380;28;20025;-38
2023/05/25 09:07:13;;;;;;;18.20;6.13;;;18.70;99.90;;;18.27;60.19;97766.06;5039943;28;20039;-38
2023/05/25 09:09:39;;;;;;;10.32;4.78;;;18.70;99.90;;;18.20;61.51;97754.03;5034290;28;20540;-36
2023/05/25 09:12:06;;;;;;;13.25;5.53;;;18.60;99.90;;;18.05;59.27;97766.53;5037084;28;20029;-36
2023/05/25 09:14:34;;;;;;;11.63;5.55;;;18.50;99.90;;;17.83;61.96;97774.94;5022902;28;20452;-36
2023/05/25 09:17:00;;;;;;;13.85;5.72;;;18.30;99.90;;;17.78;60.08;97766.34;5037664;28;20033;-36
2023/05/25 09:19:26;;;;;;;11.70;4.43;;;18.30;99.90;;;17.90;64.28;97770.13;5020183;28;20036;-36
2023/05/25 09:21:52;;;;;;;11.02;4.75;;;18.30;99.90;;;18.10;62.70;97750.22;5032386;28;20033;-36
2023/05/25 09:24:18;;;;;;;12.18;5.18;;;18.50;99.90;;;18.44;60.79;97766.81;5037033;28;20472;-38
2023/05/25 09:26:47;;;;;;;8.75;4.80;;;18.70;99.90;;;18.70;59.09;97770.50;5024157;28;20044;-38
2023/05/25 09:29:13;;;;;;;16.33;5.63;;;19.00;99.90;;;18.24;57.05;97765.38;5018930;28;20059;-37
2023/05/25 09:31:39;;;;;;;14.48;5.10;;;18.90;99.90;;;18.18;58.36;97771.09;5033858;28;20050;-38
2023/05/25 09:34:11;;;;;;;14.07;5.38;;;18.70;99.90;;;18.00;62.42;97773.97;5040089;28;20120;-38
2023/05/25 09:36:40;;;;;;;13.18;5.40;;;18.50;99.90;;;18.07;60.73;97785.97;5033245;28;20033;-38
2023/05/25 09:39:10;;;;;;;12.55;4.90;;;18.40;99.90;;;17.89;60.40;97787.94;5018600;28;20090;-38
2023/05/25 09:41:40;;;;;;;10.90;4.82;;;18.40;99.90;;;18.00;60.21;97781.97;5033359;28;20028;-37
2023/05/25 09:44:06;;;;;;;11.48;5.20;;;18.40;99.90;;;18.15;65.38;97777.47;5039222;28;20029;-37
2023/05/25 09:46:35;;;;;;;14.07;5.43;;;18.60;99.90;;;18.03;59.71;97762.22;5033494;28;20034;-38
2023/05/25 09:49:07;;;;;;;12.45;4.63;;;18.60;99.90;;;18.16;62.25;97778.34;5037525;28;20026;-38
2023/05/25 09:51:36;;;;;;;13.20;4.80;;;18.60;99.90;;;18.18;62.67;97781.75;5034911;28;20481;-36
2023/05/25 09:54:03;;;;;;;16.48;5.90;;;18.60;99.90;;;18.29;60.44;97787.31;5040434;28;20064;-36
2023/05/25 09:56:32;;;;;;;16.85;5.15;;;18.70;99.90;;;18.33;62.08;97786.16;5026937;28;20033;-37
2023/05/25 09:58:58;;;;;;;15.70;5.70;;;18.70;99.90;;;18.20;59.72;97775.41;5011092;28;20317;-36
2023/05/25 10:01:24;;;;;;;10.85;4.93;;;18.60;99.90;;;18.22;64.58;97780.63;5037008;28;20041;-36
2023/05/25 10:03:50;;;;;;;14.13;5.80;;;18.60;99.90;;;18.36;63.39;97788.66;5030352;28;20037;-37
2023/05/25 10:06:16;;;;;;;9.30;4.70;;;18.60;99.90;;;18.51;61.24;97785.00;5033244;28;20324;-37
2023/05/25 10:08:47;;;;;;;15.75;5.60;;;18.80;99.90;;;18.63;58.71;97779.84;5030407;28;20051;-38
2023/05/25 10:11:14;;;;;;;8.65;4.43;;;18.90;99.90;;;18.70;57.02;97775.84;5015768;28;20029;-38
2023/05/25 10:13:44;;;;;;;7.07;4.50;;;19.00;99.90;;;18.60;59.11;97785.38;5031947;28;20029;-37
2023/05/25 10:16:18;;;;;;;12.70;5.25;;;18.90;99.90;;;18.57;59.61;97781.06;5032961;28;20032;-37
2023/05/25 10:19:11;;;;;;;12.40;4.95;;;18.90;99.90;;;18.62;59.40;97784.31;5030155;28;20152;-37
2023/05/25 10:21:38;;;;;;;11.40;4.95;;;19.00;99.90;;;18.81;59.87;97783.16;5015193;28;20033;-38
2023/05/25 10:24:39;;;;;;;23.20;6.10;;;19.10;99.90;;;19.19;59.53;97782.50;5015232;28;20104;-38
2023/05/25 10:27:07;;;;;;;13.15;4.72;;;19.50;99.90;;;19.46;58.14;97769.97;4950704;28;20468;-40
2023/05/25 10:29:34;;;;;;;11.90;5.18;;;19.90;99.90;;;19.55;58.35;97773.00;5042183;28;20409;-40
2023/05/25 10:32:00;;;;;;;10.98;4.90;;;20.00;99.90;;;19.84;55.28;97779.06;5035210;28;20078;-39
2023/05/25 10:34:27;;;;;;;10.57;4.68;;;20.20;99.80;;;20.04;54.66;97785.72;5037042;28;20579;-39
2023/05/25 10:36:55;;;;;;;10.93;4.70;;;20.40;99.60;;;20.09;53.53;97786.25;5021286;28;20078;-39